Rochester, Massachusetts
Current Conditions -  °F | °C
As of 9:53 AM on Monday 24 Nov 2014 (Local Time) from KEWB Reporting Station
Light Rain Light Rain  
Wind Chill: 60°   Ceiling: 500
Heat Index: 60°   Visibility: 2mi
Dew Point: 59°   Wind: 21mph
Humidity: 96%   Direction: 170°S
Pressure: 29.76"   Gusts: 30mph
Location:  41.73°N, 70.82°W
Report Text: KEWB 241453Z 17018G26KT 2SM R05/5000VP6000FT -RA BR OVC005 16/15 A2976 RMK AO2 PK WND 17037/1429 SLP076 P0019 60049 T01560150 56046
Loading
Personal Weather Stations






























Interactive Weather Map New forecast layout! Learn more

10-Day Weather Forecast

Advertisements
Track Severe Weather on mobile